Aérodrome :
LOGIN :

S'inscrire | Disclaimer

   EN    FR    IT 

 










Légende :    VFR   VFR Marginal   IFR   IFR Intensif   IFR Très Intensif
Visi : 
Plafond : 
>= 8 km
>= 3000ft
5 à 8 km
1000 à 3000 ft
1500m à 5 km
500 à 1000 ft
800 à 1500m
200 à 500 ft
< 800m
< 200 ft
Symboles :   Orages  Brouillard  Fortes neiges  Fortes précipitations  Vent > 20 kt
SIGMETs :   Divers  Orages  Givrage  Turbulence  Onde Orograph.  Cendres Volcan.







- Altitude de l'aérodrome : 1090 ft
- Code IATA : CFE
- Voir les cartes d'approche


LFLC - Clermont-Ferrand Auvergne

DERNIER METAR :
  • 192000Z AUTO 16009KT CAVOK 18/10 Q1012 TEMPO 18020G30KT

METARs EXPIRÉS :
  • 191930Z AUTO 16010KT CAVOK 18/10 Q1012 TEMPO 18020G30KT
  • 191900Z AUTO 18010KT CAVOK 18/10 Q1013 TEMPO 18020G30KT
  • 191830Z AUTO 19014KT CAVOK 18/09 Q1012 TEMPO 18020G30KT
  • 191800Z AUTO 19016KT 9999 FEW066 SCT100 BKN120 19/09 Q1012 TEMPO 18020G30KT
  • 191730Z AUTO 18010KT 150V210 9999 FEW062 SCT110 OVC140 20/09 Q1012 TEMPO 18020G30KT

TAF TAF LFLC
Valide du 19 à 15h jusqu'au 20 à 15h UTC


191400Z 1915/2015 16015G25KT 9999 SCT060
TEMPO 1915/1924 18020G30KT
PROB30
TEMPO 2006/2009 -RA SCT040
BECMG 2012/2015 26010KT
ATIS : +33 4 73 62 74 38
Pas de NOTAMs connus pour ce terrain.
1 SIGMET publié pour la FIR Marseille (LFMM) :
 
Orages noyés dans la masse
LFMM SIGMET 14 VALID 191900/192100 LFPW
LFMM MARSEILLE FIR/UIR EMBD TS OBS WI N3900 E00700 - N3900 E00430 - N4200 E00430 - N4215 E00230 - N4345 E00245 - N4345 E00300 - N4115 E00600 TOP FL370 STNR NC=



MET'MAP, la Météo Aéronautique d'un coup d'oeil ! - Copyright ORBIFLY Décembre 2007 - Disclaimer

ORBIFLY MET'MAP TEAM :

Programmation & Développement : Alexandra Zaïnal
Conception & Développement : Baudouin d'Aumeries
Co-Programmation & Développement : Marc-Olivier Méhu
Soutien technique & logistique : Manuel Goepfert

Contact : metmap@orbifly.com




SOURCES & CREDITS :

   NOAA